createdAt,value
2022-10-04T00:02:06.427Z,13.80
2022-10-04T00:06:23.210Z,13.80
2022-10-04T00:10:38.533Z,13.80
2022-10-04T00:14:54.422Z,13.80
2022-10-04T00:19:27.851Z,13.70
2022-10-04T00:23:47.245Z,13.70
2022-10-04T00:28:28.081Z,13.60
2022-10-04T00:33:01.062Z,13.50
2022-10-04T00:37:15.896Z,13.40
2022-10-04T00:41:31.247Z,13.20
2022-10-04T00:45:49.968Z,13.20
2022-10-04T00:50:16.110Z,13.20
2022-10-04T00:54:36.278Z,13.20
2022-10-04T00:59:14.495Z,13.20
2022-10-04T01:03:38.575Z,13.20
2022-10-04T01:07:59.482Z,13.20
2022-10-04T01:12:23.872Z,13.30
2022-10-04T01:16:40.574Z,13.30
2022-10-04T01:21:01.294Z,13.30
2022-10-04T01:25:46.833Z,13.20
2022-10-04T01:30:04.248Z,13.10
2022-10-04T01:34:21.612Z,13.00
2022-10-04T01:38:37.869Z,13.00
2022-10-04T01:43:00.527Z,13.10
2022-10-04T01:47:20.509Z,13.10
2022-10-04T01:51:39.416Z,13.20
2022-10-04T01:55:59.493Z,13.30
2022-10-04T02:00:16.784Z,13.30
2022-10-04T02:04:34.725Z,13.20
2022-10-04T02:08:51.743Z,13.10
2022-10-04T02:13:09.866Z,13.00
2022-10-04T02:17:28.309Z,13.00
2022-10-04T02:21:43.435Z,13.00
2022-10-04T02:25:59.684Z,12.90
2022-10-04T02:30:15.468Z,12.80
2022-10-04T02:34:31.818Z,12.80
2022-10-04T02:38:52.708Z,12.60
2022-10-04T02:43:13.177Z,12.60
2022-10-04T02:47:30.444Z,12.50
2022-10-04T02:51:52.002Z,12.40
2022-10-04T02:56:07.246Z,12.30
2022-10-04T03:00:24.546Z,12.20
2022-10-04T03:04:41.228Z,12.10
2022-10-04T03:08:59.252Z,12.00
2022-10-04T03:13:16.369Z,11.90
2022-10-04T03:17:31.694Z,11.80
2022-10-04T03:21:51.573Z,11.70
2022-10-04T03:26:22.266Z,11.60
2022-10-04T03:30:45.326Z,11.60
2022-10-04T03:35:02.807Z,11.50
2022-10-04T03:39:24.282Z,11.50
2022-10-04T03:43:43.967Z,11.40
2022-10-04T03:48:05.032Z,11.40
2022-10-04T03:52:23.296Z,11.30
2022-10-04T03:56:38.577Z,11.30
2022-10-04T04:01:13.870Z,11.30
2022-10-04T04:05:31.778Z,11.20
2022-10-04T04:09:49.021Z,11.20
2022-10-04T04:14:08.674Z,11.10
2022-10-04T04:18:27.598Z,11.10
2022-10-04T04:22:46.639Z,11.10
2022-10-04T04:27:05.641Z,11.00
2022-10-04T04:31:24.239Z,11.00
2022-10-04T04:35:39.932Z,11.00
2022-10-04T04:39:56.732Z,11.00
2022-10-04T04:44:20.037Z,11.00
2022-10-04T04:48:34.747Z,11.00
2022-10-04T04:52:52.652Z,10.90
2022-10-04T04:57:08.258Z,11.00
2022-10-04T05:01:26.499Z,11.00
2022-10-04T05:05:46.573Z,10.90
2022-10-04T05:10:02.305Z,11.00
2022-10-04T05:14:22.280Z,11.00
2022-10-04T05:18:37.001Z,11.00
2022-10-04T05:22:53.013Z,11.10
2022-10-04T05:27:14.613Z,11.20
2022-10-04T05:31:38.763Z,11.30
2022-10-04T05:36:19.046Z,11.40
2022-10-04T05:40:43.347Z,11.50
2022-10-04T05:45:00.629Z,11.70
2022-10-04T05:49:19.586Z,11.90
2022-10-04T05:53:37.129Z,12.10
2022-10-04T05:58:07.639Z,12.30
2022-10-04T06:02:37.324Z,12.40
2022-10-04T06:06:59.043Z,12.70
2022-10-04T06:11:30.311Z,12.90
2022-10-04T06:16:09.730Z,13.20
2022-10-04T06:20:55.340Z,13.40
2022-10-04T06:25:18.727Z,13.50
2022-10-04T06:29:40.718Z,13.70
2022-10-04T06:34:14.977Z,13.80
2022-10-04T06:38:48.762Z,13.80
2022-10-04T06:43:18.170Z,13.90
2022-10-04T06:47:49.133Z,13.90
2022-10-04T06:52:28.425Z,13.90
2022-10-04T06:57:12.568Z,13.90
2022-10-04T07:01:31.254Z,14.00
2022-10-04T07:05:50.755Z,14.20
2022-10-04T07:10:24.721Z,14.40
2022-10-04T07:14:46.135Z,14.80
2022-10-04T07:19:09.698Z,15.10
2022-10-04T07:23:28.651Z,15.30
2022-10-04T07:28:12.959Z,15.50
2022-10-04T07:32:34.842Z,15.80
2022-10-04T07:36:56.034Z,16.00
2022-10-04T07:41:20.222Z,16.20
2022-10-04T07:45:40.114Z,16.50
2022-10-04T07:49:59.040Z,16.90
2022-10-04T07:54:21.659Z,17.20
2022-10-04T07:58:45.949Z,17.60
2022-10-04T08:03:16.852Z,18.30
2022-10-04T08:07:46.298Z,18.80
2022-10-04T08:12:09.514Z,19.10
2022-10-04T08:16:35.540Z,19.20
2022-10-04T08:20:56.178Z,19.20
2022-10-04T08:25:19.728Z,19.20
2022-10-04T08:29:53.507Z,19.20
2022-10-04T08:34:22.415Z,19.10
2022-10-04T08:38:45.105Z,19.00
2022-10-04T08:43:27.952Z,18.80
2022-10-04T08:48:24.670Z,18.70
2022-10-04T08:52:58.784Z,18.60
2022-10-04T08:57:36.159Z,18.50
2022-10-04T09:02:36.374Z,18.40
2022-10-04T09:07:04.951Z,18.30
2022-10-04T09:11:46.457Z,18.60
2022-10-04T09:16:10.333Z,19.00
2022-10-04T09:20:43.467Z,19.40
2022-10-04T09:25:22.842Z,19.60
2022-10-04T09:29:53.070Z,19.70
2022-10-04T09:34:17.445Z,19.80
2022-10-04T09:39:28.536Z,19.80
2022-10-04T09:44:17.603Z,19.90
2022-10-04T09:48:38.105Z,19.80
2022-10-04T09:52:59.602Z,19.60
2022-10-04T09:57:30.271Z,19.60
2022-10-04T10:02:02.110Z,19.90
2022-10-04T10:06:55.490Z,20.10
2022-10-04T10:11:36.221Z,20.30
2022-10-04T10:16:00.454Z,20.60
2022-10-04T10:20:39.773Z,20.80
2022-10-04T10:25:13.953Z,21.40
2022-10-04T10:29:48.483Z,22.00
2022-10-04T10:34:29.158Z,22.10
2022-10-04T10:38:55.125Z,22.20
2022-10-04T10:43:37.948Z,22.40
2022-10-04T10:47:59.777Z,23.10
2022-10-04T10:52:43.128Z,24.40
2022-10-04T10:57:10.504Z,25.50
2022-10-04T11:01:53.347Z,26.50
2022-10-04T11:06:25.280Z,27.20
2022-10-04T11:11:04.436Z,27.70
2022-10-04T11:15:55.037Z,28.10
2022-10-04T11:20:36.910Z,28.00
2022-10-04T11:25:19.216Z,27.40
2022-10-04T11:29:56.406Z,26.90
2022-10-04T11:34:30.862Z,26.20
2022-10-04T11:39:26.352Z,25.50
2022-10-04T11:44:02.313Z,24.90
2022-10-04T11:48:33.142Z,24.70
2022-10-04T11:53:28.796Z,24.40
2022-10-04T11:57:47.285Z,24.30
2022-10-04T12:02:44.265Z,24.30
2022-10-04T12:07:26.586Z,24.00
2022-10-04T12:12:38.307Z,23.40
2022-10-04T12:17:38.379Z,22.80
2022-10-04T12:22:07.766Z,21.90
2022-10-04T12:26:43.538Z,21.30
2022-10-04T12:31:20.237Z,20.80
2022-10-04T12:35:57.761Z,20.80
2022-10-04T12:40:29.886Z,20.80
2022-10-04T12:45:00.408Z,20.70
2022-10-04T12:49:28.147Z,20.50
2022-10-04T12:53:54.511Z,20.30
2022-10-04T12:58:24.027Z,20.10
2022-10-04T13:03:05.172Z,19.80
2022-10-04T13:07:32.690Z,19.60
2022-10-04T13:12:01.934Z,19.30
2022-10-04T13:21:04.996Z,19.10
2022-10-04T13:25:56.316Z,19.00
2022-10-04T13:30:23.604Z,18.90
2022-10-04T13:34:46.329Z,18.80
2022-10-04T13:39:29.430Z,18.70
2022-10-04T13:44:08.673Z,18.80
2022-10-04T13:48:42.340Z,18.80
2022-10-04T13:53:23.459Z,18.80
2022-10-04T13:57:44.428Z,18.80
2022-10-04T14:02:23.273Z,18.70
2022-10-04T14:07:18.675Z,18.60
2022-10-04T14:12:15.694Z,18.60
2022-10-04T14:17:01.106Z,18.60
2022-10-04T14:21:35.901Z,18.60
2022-10-04T14:26:11.603Z,18.60
2022-10-04T14:30:33.212Z,18.70
2022-10-04T14:35:00.718Z,18.60
2022-10-04T14:39:35.114Z,18.60
2022-10-04T14:44:28.942Z,18.60
2022-10-04T14:49:03.743Z,18.50
2022-10-04T14:53:29.563Z,18.40
2022-10-04T14:58:00.044Z,18.40
2022-10-04T15:02:50.263Z,18.30
2022-10-04T15:07:18.881Z,18.30
2022-10-04T15:11:57.521Z,18.30
2022-10-04T15:16:33.673Z,18.20
2022-10-04T15:20:54.500Z,18.20
2022-10-04T15:25:40.854Z,18.10
2022-10-04T15:30:04.525Z,18.10
2022-10-04T15:34:33.587Z,18.00
2022-10-04T15:38:57.341Z,18.00
2022-10-04T15:43:25.633Z,18.00
2022-10-04T15:47:58.847Z,18.00
2022-10-04T15:52:21.980Z,18.00
2022-10-04T15:56:46.598Z,17.90
2022-10-04T16:01:36.318Z,17.80
2022-10-04T16:06:15.234Z,17.70
2022-10-04T16:11:03.344Z,17.60
2022-10-04T16:15:40.246Z,17.60
2022-10-04T16:20:35.200Z,17.60
2022-10-04T16:25:44.186Z,17.40
2022-10-04T16:30:27.910Z,17.30
2022-10-04T16:35:05.167Z,17.10
2022-10-04T16:40:12.197Z,17.00
2022-10-04T16:44:57.167Z,16.90
2022-10-04T16:49:41.246Z,16.70
2022-10-04T16:54:36.154Z,16.60
2022-10-04T16:59:07.454Z,16.50
2022-10-04T17:03:44.191Z,16.40
2022-10-04T17:08:39.133Z,16.20
2022-10-04T17:13:31.144Z,16.00
2022-10-04T17:18:15.215Z,16.00
2022-10-04T17:23:02.203Z,15.80
2022-10-04T17:28:00.179Z,15.70
2022-10-04T17:32:33.713Z,15.60
2022-10-04T17:37:11.141Z,15.50
2022-10-04T17:42:03.123Z,15.40
2022-10-04T17:46:43.395Z,15.40
2022-10-04T17:51:57.122Z,15.30
2022-10-04T17:56:44.439Z,15.20
2022-10-04T18:01:30.191Z,15.10
2022-10-04T18:06:08.104Z,15.10
2022-10-04T18:10:41.039Z,15.00
2022-10-04T18:15:28.181Z,15.00
2022-10-04T18:20:16.199Z,14.90
2022-10-04T18:24:51.087Z,14.80
2022-10-04T18:29:28.108Z,14.70
2022-10-04T18:34:06.096Z,14.70
2022-10-04T18:38:44.101Z,14.60
2022-10-04T18:43:34.085Z,14.50
2022-10-04T18:48:12.082Z,14.50
2022-10-04T18:52:57.070Z,14.50
2022-10-04T18:58:06.154Z,14.40
2022-10-04T19:02:47.525Z,14.40
2022-10-04T19:07:19.062Z,14.40
2022-10-04T19:12:00.056Z,14.30
2022-10-04T19:16:45.405Z,14.20
2022-10-04T19:21:31.102Z,14.10
2022-10-04T19:31:10.125Z,14.00
2022-10-04T19:36:08.076Z,13.90
2022-10-04T19:40:51.098Z,13.90
2022-10-04T19:45:40.106Z,13.80
2022-10-04T19:50:18.461Z,13.80
2022-10-04T19:54:54.049Z,13.60
2022-10-04T19:59:33.019Z,13.60
2022-10-04T20:04:31.035Z,13.50
2022-10-04T20:09:30.024Z,13.50
2022-10-04T20:14:51.038Z,13.40
2022-10-04T20:19:29.013Z,13.30
2022-10-04T20:24:05.021Z,13.30
2022-10-04T20:28:50.035Z,13.30
2022-10-04T20:33:19.251Z,13.20
2022-10-04T20:38:32.438Z,13.20
2022-10-04T20:43:36.022Z,13.10
2022-10-04T20:48:19.042Z,13.00
2022-10-04T20:52:57.993Z,13.00
2022-10-04T20:57:30.983Z,12.90
2022-10-04T21:02:19.069Z,12.90
2022-10-04T21:07:00.998Z,12.90
2022-10-04T21:11:35.987Z,12.90
2022-10-04T21:16:02.985Z,12.80
2022-10-04T21:20:58.049Z,12.80
2022-10-04T21:25:39.983Z,12.70
2022-10-04T21:30:14.959Z,12.70
2022-10-04T21:34:53.589Z,12.70
2022-10-04T21:39:27.980Z,12.60
2022-10-04T21:44:02.956Z,12.60
2022-10-04T21:48:36.945Z,12.60
2022-10-04T21:53:09.981Z,12.60
2022-10-04T21:57:43.975Z,12.50
2022-10-04T22:02:19.001Z,12.50
2022-10-04T22:06:52.970Z,12.50
2022-10-04T22:11:26.011Z,12.50
2022-10-04T22:16:00.011Z,12.50
2022-10-04T22:20:28.658Z,12.40
2022-10-04T22:25:01.959Z,12.40
2022-10-04T22:29:37.915Z,12.40
2022-10-04T22:34:11.964Z,12.40
2022-10-04T22:38:46.965Z,12.40
2022-10-04T22:43:27.962Z,12.40
2022-10-04T22:48:03.930Z,12.40
2022-10-04T22:52:39.927Z,12.40
2022-10-04T22:57:16.919Z,12.30
2022-10-04T23:01:44.090Z,12.30
2022-10-04T23:06:20.954Z,12.40
2022-10-04T23:10:54.948Z,12.30
2022-10-04T23:15:29.952Z,12.30
2022-10-04T23:20:05.918Z,12.30
2022-10-04T23:24:38.920Z,12.30
2022-10-04T23:29:13.923Z,12.20
2022-10-04T23:33:48.918Z,12.20
2022-10-04T23:38:27.885Z,12.20
2022-10-04T23:42:57.490Z,12.10
2022-10-04T23:47:32.881Z,12.00
2022-10-04T23:52:10.903Z,12.00
2022-10-04T23:56:45.166Z,12.00
